createdAt,value
2018-04-28T00:00:14.048Z,934.50
2018-04-28T00:01:14.057Z,934.50
2018-04-28T00:02:14.195Z,934.53
2018-04-28T00:03:14.370Z,934.52
2018-04-28T00:04:14.230Z,934.56
2018-04-28T00:05:14.249Z,934.50
2018-04-28T00:06:14.142Z,934.56
2018-04-28T00:07:14.152Z,934.58
2018-04-28T00:08:14.442Z,934.59
2018-04-28T00:09:14.196Z,934.57
2018-04-28T00:10:14.199Z,934.58
2018-04-28T00:11:14.347Z,934.56
2018-04-28T00:12:14.244Z,934.57
2018-04-28T00:13:14.475Z,934.57
2018-04-28T00:14:14.263Z,934.56
2018-04-28T00:15:14.288Z,934.60
2018-04-28T00:16:14.297Z,934.58
2018-04-28T00:17:14.438Z,934.59
2018-04-28T00:18:14.554Z,934.59
2018-04-28T00:19:14.353Z,934.64
2018-04-28T00:20:14.357Z,934.65
2018-04-28T00:21:14.384Z,934.64
2018-04-28T00:22:14.394Z,934.64
2018-04-28T00:23:14.638Z,934.62
2018-04-28T00:24:14.425Z,934.63
2018-04-28T00:25:14.440Z,934.61
2018-04-28T00:26:14.583Z,934.64
2018-04-28T00:27:14.471Z,934.66
2018-04-28T00:28:14.714Z,934.64
2018-04-28T00:29:14.505Z,934.65
2018-04-28T00:30:14.520Z,934.67
2018-04-28T00:31:14.662Z,934.68
2018-04-28T00:32:14.570Z,934.66
2018-04-28T00:33:14.692Z,934.68
2018-04-28T00:34:14.692Z,934.72
2018-04-28T00:35:14.616Z,934.66
2018-04-28T00:36:14.623Z,934.64
2018-04-28T00:37:14.756Z,934.63
2018-04-28T00:38:14.774Z,934.61
2018-04-28T00:39:14.666Z,934.63
2018-04-28T00:40:14.956Z,934.60
2018-04-28T00:41:14.693Z,934.58
2018-04-28T00:42:14.713Z,934.61
2018-04-28T00:43:14.736Z,934.59
2018-04-28T00:44:14.744Z,934.61
2018-04-28T00:45:14.868Z,934.57
2018-04-28T00:46:14.901Z,934.60
2018-04-28T00:47:14.920Z,934.60
2018-04-28T00:48:14.818Z,934.62
2018-04-28T00:49:14.820Z,934.60
2018-04-28T00:50:14.997Z,934.55
2018-04-28T00:51:14.871Z,934.59
2018-04-28T00:52:14.997Z,934.58
2018-04-28T00:53:14.886Z,934.61
2018-04-28T00:54:15.035Z,934.61
2018-04-28T00:55:15.082Z,934.61
2018-04-28T00:56:15.062Z,934.59
2018-04-28T00:57:15.076Z,934.61
2018-04-28T00:58:14.979Z,934.61
2018-04-28T00:59:14.983Z,934.61
2018-04-28T01:00:15.112Z,934.61
2018-04-28T01:01:15.017Z,934.62
2018-04-28T01:02:15.029Z,934.60
2018-04-28T01:03:15.053Z,934.62
2018-04-28T01:04:15.201Z,934.65
2018-04-28T01:05:15.236Z,934.62
2018-04-28T01:06:15.095Z,934.65
2018-04-28T01:07:15.117Z,934.69
2018-04-28T01:08:15.118Z,934.70
2018-04-28T01:09:15.146Z,934.71
2018-04-28T01:10:15.321Z,934.69
2018-04-28T01:11:15.165Z,934.68
2018-04-28T01:12:15.313Z,934.69
2018-04-28T01:13:15.203Z,934.69
2018-04-28T01:14:15.345Z,934.70
2018-04-28T01:15:15.460Z,934.71
2018-04-28T01:16:15.259Z,934.70
2018-04-28T01:17:15.395Z,934.72
2018-04-28T01:18:15.408Z,934.73
2018-04-28T01:19:15.300Z,934.73
2018-04-28T01:20:15.539Z,934.74
2018-04-28T01:21:15.330Z,934.73
2018-04-28T01:22:15.358Z,934.75
2018-04-28T01:23:15.358Z,934.74
2018-04-28T01:24:15.383Z,934.75
2018-04-28T01:25:15.559Z,934.76
2018-04-28T01:26:15.534Z,934.73
2018-04-28T01:27:15.424Z,934.77
2018-04-28T01:28:15.446Z,934.73
2018-04-28T01:29:15.578Z,934.71
2018-04-28T01:30:15.567Z,934.69
2018-04-28T01:31:15.493Z,934.68
2018-04-28T01:32:15.498Z,934.67
2018-04-28T01:33:15.524Z,934.67
2018-04-28T01:34:15.659Z,934.63
2018-04-28T01:35:15.652Z,934.67
2018-04-28T01:36:15.570Z,934.66
2018-04-28T01:37:15.705Z,934.63
2018-04-28T01:38:15.607Z,934.68
2018-04-28T01:39:15.738Z,934.70
2018-04-28T01:40:15.722Z,934.67
2018-04-28T01:41:15.767Z,934.65
2018-04-28T01:42:15.656Z,934.66
2018-04-28T01:43:15.797Z,934.65
2018-04-28T01:44:15.814Z,934.67
2018-04-28T01:45:15.709Z,934.70
2018-04-28T01:46:15.874Z,934.68
2018-04-28T01:47:15.731Z,934.72
2018-04-28T01:48:15.755Z,934.68
2018-04-28T01:49:15.892Z,934.71
2018-04-28T01:50:15.783Z,934.68
2018-04-28T01:51:15.908Z,934.69
2018-04-28T01:52:15.937Z,934.69
2018-04-28T01:53:15.838Z,934.63
2018-04-28T01:54:15.853Z,934.62
2018-04-28T01:55:15.855Z,934.61
2018-04-28T01:56:16.096Z,934.57
2018-04-28T01:57:16.015Z,934.58
2018-04-28T01:58:15.905Z,934.56
2018-04-28T01:59:15.925Z,934.54
2018-04-28T02:00:16.059Z,934.57
2018-04-28T02:01:16.056Z,934.52
2018-04-28T02:02:16.091Z,934.58
2018-04-28T02:03:15.982Z,934.58
2018-04-28T02:04:16.120Z,934.59
2018-04-28T02:05:16.011Z,934.56
2018-04-28T02:06:16.125Z,934.56
2018-04-28T02:07:16.040Z,934.53
2018-04-28T02:08:16.059Z,934.56
2018-04-28T02:09:16.200Z,934.55
2018-04-28T02:10:16.215Z,934.53
2018-04-28T02:11:16.222Z,934.53
2018-04-28T02:12:16.130Z,934.52
2018-04-28T02:13:16.145Z,934.52
2018-04-28T02:14:16.275Z,934.54
2018-04-28T02:15:16.163Z,934.59
2018-04-28T02:16:16.289Z,934.58
2018-04-28T02:17:16.321Z,934.55
2018-04-28T02:18:16.209Z,934.54
2018-04-28T02:19:16.235Z,934.53
2018-04-28T02:20:16.241Z,934.51
2018-04-28T02:21:16.533Z,934.49
2018-04-28T02:22:16.271Z,934.50
2018-04-28T02:23:16.295Z,934.49
2018-04-28T02:24:16.305Z,934.45
2018-04-28T02:25:16.447Z,934.48
2018-04-28T02:26:16.434Z,934.48
2018-04-28T02:27:16.475Z,934.46
2018-04-28T02:28:16.363Z,934.48
2018-04-28T02:29:16.506Z,934.48
2018-04-28T02:30:16.403Z,934.47
2018-04-28T02:31:16.539Z,934.47
2018-04-28T02:32:16.591Z,934.46
2018-04-28T02:33:16.449Z,934.43
2018-04-28T02:34:16.462Z,934.37
2018-04-28T02:35:16.485Z,934.40
2018-04-28T02:36:16.615Z,934.41
2018-04-28T02:37:16.668Z,934.41
2018-04-28T02:38:16.527Z,934.42
2018-04-28T02:39:16.538Z,934.43
2018-04-28T02:40:16.558Z,934.42
2018-04-28T02:41:16.566Z,934.46
2018-04-28T02:42:16.688Z,934.42
2018-04-28T02:43:16.593Z,934.48
2018-04-28T02:44:16.737Z,934.48
2018-04-28T02:45:16.753Z,934.46
2018-04-28T02:46:16.645Z,934.47
2018-04-28T02:47:16.767Z,934.45
2018-04-28T02:48:16.680Z,934.41
2018-04-28T02:49:16.811Z,934.44
2018-04-28T02:50:16.827Z,934.41
2018-04-28T02:51:16.725Z,934.44
2018-04-28T02:52:16.743Z,934.42
2018-04-28T02:53:16.974Z,934.40
2018-04-28T02:54:16.761Z,934.41
2018-04-28T02:55:16.785Z,934.41
2018-04-28T02:56:16.917Z,934.42
2018-04-28T02:57:16.814Z,934.45
2018-04-28T02:58:16.927Z,934.46
2018-04-28T02:59:16.963Z,934.48
2018-04-28T03:00:16.860Z,934.50
2018-04-28T03:01:16.883Z,934.52
2018-04-28T03:02:16.889Z,934.50
2018-04-28T03:03:17.000Z,934.49
2018-04-28T03:04:16.915Z,934.45
2018-04-28T03:05:17.055Z,934.45
2018-04-28T03:06:16.950Z,934.48
2018-04-28T03:07:16.973Z,934.44
2018-04-28T03:08:17.200Z,934.44
2018-04-28T03:09:16.995Z,934.43
2018-04-28T03:10:17.022Z,934.38
2018-04-28T03:11:17.148Z,934.33
2018-04-28T03:12:17.046Z,934.34
2018-04-28T03:13:17.202Z,934.35
2018-04-28T03:14:17.189Z,934.33
2018-04-28T03:15:17.208Z,934.30
2018-04-28T03:16:17.107Z,934.34
2018-04-28T03:17:17.117Z,934.29
2018-04-28T03:18:17.224Z,934.29
2018-04-28T03:19:17.269Z,934.23
2018-04-28T03:20:17.279Z,934.24
2018-04-28T03:21:17.174Z,934.25
2018-04-28T03:22:17.192Z,934.22
2018-04-28T03:23:17.298Z,934.22
2018-04-28T03:24:17.419Z,934.22
2018-04-28T03:25:17.229Z,934.17
2018-04-28T03:26:17.372Z,934.16
2018-04-28T03:27:17.385Z,934.19
2018-04-28T03:28:17.371Z,934.16
2018-04-28T03:29:17.303Z,934.19
2018-04-28T03:30:17.319Z,934.20
2018-04-28T03:31:17.319Z,934.19
2018-04-28T03:32:17.461Z,934.18
2018-04-28T03:33:17.456Z,934.23
2018-04-28T03:34:17.362Z,934.22
2018-04-28T03:35:17.390Z,934.23
2018-04-28T03:36:17.522Z,934.19
2018-04-28T03:37:17.535Z,934.17
2018-04-28T03:38:17.649Z,934.18
2018-04-28T03:39:17.446Z,934.16
2018-04-28T03:40:17.467Z,934.14
2018-04-28T03:41:17.597Z,934.15
2018-04-28T03:42:17.485Z,934.16
2018-04-28T03:43:17.624Z,934.18
2018-04-28T03:44:17.791Z,934.23
2018-04-28T03:45:17.658Z,934.17
2018-04-28T03:46:17.542Z,934.19
2018-04-28T03:47:17.684Z,934.14
2018-04-28T03:48:17.702Z,934.15
2018-04-28T03:49:17.816Z,934.10
2018-04-28T03:50:17.729Z,934.07
2018-04-28T03:51:17.618Z,934.11
2018-04-28T03:52:17.758Z,934.06
2018-04-28T03:53:17.641Z,934.06
2018-04-28T03:54:17.760Z,934.04
2018-04-28T03:55:17.803Z,934.03
2018-04-28T03:56:17.693Z,934.02
2018-04-28T03:57:17.714Z,934.02
2018-04-28T03:58:17.731Z,934.00
2018-04-28T03:59:17.853Z,933.96
2018-04-28T04:00:17.880Z,933.93
2018-04-28T04:01:17.892Z,933.88
2018-04-28T04:02:17.775Z,933.93
2018-04-28T04:03:17.795Z,933.87
2018-04-28T04:04:17.910Z,933.94
2018-04-28T04:05:17.824Z,933.92
2018-04-28T04:06:17.848Z,933.94
2018-04-28T04:07:17.854Z,933.93
2018-04-28T04:08:17.880Z,933.95
2018-04-28T04:09:18.085Z,933.93
2018-04-28T04:10:17.902Z,933.90
2018-04-28T04:11:17.924Z,933.90
2018-04-28T04:12:18.055Z,933.89
2018-04-28T04:13:17.951Z,933.91
2018-04-28T04:14:18.239Z,933.93
2018-04-28T04:15:18.104Z,933.91
2018-04-28T04:16:17.994Z,933.94
2018-04-28T04:17:18.133Z,933.92
2018-04-28T04:18:18.155Z,933.93
2018-04-28T04:19:18.265Z,933.95
2018-04-28T04:20:18.174Z,933.89
2018-04-28T04:21:18.068Z,933.90
2018-04-28T04:22:18.078Z,933.92
2018-04-28T04:23:18.101Z,933.92
2018-04-28T04:24:18.388Z,933.91
2018-04-28T04:25:18.131Z,933.92
2018-04-28T04:26:18.265Z,933.88
2018-04-28T04:27:18.152Z,933.89
2018-04-28T04:28:18.295Z,933.88
2018-04-28T04:29:18.276Z,933.85
2018-04-28T04:30:18.324Z,933.86
2018-04-28T04:31:18.213Z,933.82
2018-04-28T04:32:18.355Z,933.83
2018-04-28T04:33:18.255Z,933.78
2018-04-28T04:34:18.534Z,933.81
2018-04-28T04:35:18.273Z,933.78
2018-04-28T04:36:18.294Z,933.78
2018-04-28T04:37:18.301Z,933.79
2018-04-28T04:38:18.321Z,933.80
2018-04-28T04:39:18.557Z,933.77
2018-04-28T04:40:18.344Z,933.77
2018-04-28T04:41:18.488Z,933.74
2018-04-28T04:42:18.501Z,933.76
2018-04-28T04:43:18.392Z,933.73
2018-04-28T04:44:18.561Z,933.74
2018-04-28T04:45:18.419Z,933.71
2018-04-28T04:46:18.563Z,933.69
2018-04-28T04:47:18.457Z,933.69
2018-04-28T04:48:18.465Z,933.73
2018-04-28T04:49:18.608Z,933.75
2018-04-28T04:50:18.605Z,933.76
2018-04-28T04:51:18.635Z,933.75
2018-04-28T04:52:18.649Z,933.71
2018-04-28T04:53:18.662Z,933.73
2018-04-28T04:54:18.678Z,933.72
2018-04-28T04:55:18.767Z,933.66
2018-04-28T04:56:18.588Z,933.67
2018-04-28T04:57:18.597Z,933.63
2018-04-28T04:58:18.736Z,933.68
2018-04-28T04:59:18.751Z,933.69
2018-04-28T05:00:18.871Z,933.71
2018-04-28T05:01:18.662Z,933.63
2018-04-28T05:02:18.802Z,933.64
2018-04-28T05:03:18.698Z,933.62
2018-04-28T05:04:18.825Z,933.64
2018-04-28T05:05:18.988Z,933.64
2018-04-28T05:06:18.741Z,933.67
2018-04-28T05:07:18.868Z,933.67
2018-04-28T05:08:18.881Z,933.69
2018-04-28T05:10:19.012Z,933.68
2018-04-28T05:11:18.808Z,933.65
2018-04-28T05:12:18.818Z,933.67
2018-04-28T05:13:18.838Z,933.68
2018-04-28T05:14:18.852Z,933.64
2018-04-28T05:15:19.011Z,933.60
2018-04-28T05:16:18.999Z,933.60
2018-04-28T05:17:19.019Z,933.66
2018-04-28T05:18:18.902Z,933.68
2018-04-28T05:19:18.931Z,933.64
2018-04-28T05:20:19.157Z,933.69
2018-04-28T05:21:18.960Z,933.66
2018-04-28T05:22:19.090Z,933.65
2018-04-28T05:23:19.103Z,933.63
2018-04-28T05:24:19.116Z,933.69
2018-04-28T05:25:19.112Z,933.66
2018-04-28T05:26:19.029Z,933.64
2018-04-28T05:27:19.033Z,933.67
2018-04-28T05:28:19.056Z,933.68
2018-04-28T05:29:19.192Z,933.67
2018-04-28T05:30:19.304Z,933.69
2018-04-28T05:31:19.100Z,933.70
2018-04-28T05:32:19.106Z,933.74
2018-04-28T05:33:19.128Z,933.70
2018-04-28T05:34:19.262Z,933.74
2018-04-28T05:35:19.379Z,933.74
2018-04-28T05:36:19.174Z,933.73
2018-04-28T05:37:19.183Z,933.77
2018-04-28T05:38:19.196Z,933.77
2018-04-28T05:39:19.337Z,933.76
2018-04-28T05:40:19.318Z,933.80
2018-04-28T05:41:19.246Z,933.75
2018-04-28T05:42:19.379Z,933.75
2018-04-28T05:43:19.397Z,933.77
2018-04-28T05:44:19.407Z,933.77
2018-04-28T05:45:19.301Z,933.80
2018-04-28T05:46:19.419Z,933.75
2018-04-28T05:47:19.451Z,933.78
2018-04-28T05:48:19.341Z,933.76
2018-04-28T05:49:19.369Z,933.77
2018-04-28T05:50:19.377Z,933.73
2018-04-28T05:51:19.616Z,933.74
2018-04-28T05:52:19.524Z,933.72
2018-04-28T05:53:19.413Z,933.78
2018-04-28T05:54:19.435Z,933.78
2018-04-28T05:55:19.440Z,933.78
2018-04-28T05:56:19.682Z,933.82
2018-04-28T05:57:19.471Z,933.80
2018-04-28T05:58:19.614Z,933.77
2018-04-28T05:59:19.513Z,933.82
2018-04-28T06:00:19.514Z,933.79
2018-04-28T06:01:19.654Z,933.81
2018-04-28T06:02:19.769Z,933.81
2018-04-28T06:03:19.603Z,933.81
2018-04-28T06:04:19.571Z,933.80
2018-04-28T06:05:19.715Z,933.76
2018-04-28T06:06:19.604Z,933.74
2018-04-28T06:07:19.627Z,933.76
2018-04-28T06:08:19.731Z,933.74
2018-04-28T06:09:19.770Z,933.72
2018-04-28T06:10:19.786Z,933.71
2018-04-28T06:11:19.801Z,933.67
2018-04-28T06:12:19.696Z,933.64
2018-04-28T06:13:19.803Z,933.61
2018-04-28T06:14:19.722Z,933.62
2018-04-28T06:15:19.860Z,933.57
2018-04-28T06:16:19.762Z,933.62
2018-04-28T06:17:19.759Z,933.61
2018-04-28T06:18:20.003Z,933.65
2018-04-28T06:19:19.918Z,933.67
2018-04-28T06:20:19.990Z,933.63
2018-04-28T06:21:19.952Z,933.64
2018-04-28T06:22:19.837Z,933.63
2018-04-28T06:23:19.859Z,933.64
2018-04-28T06:24:20.015Z,933.67
2018-04-28T06:25:20.007Z,933.65
2018-04-28T06:26:19.897Z,933.69
2018-04-28T06:27:19.918Z,933.63
2018-04-28T06:28:20.054Z,933.63
2018-04-28T06:29:20.096Z,933.66
2018-04-28T06:30:20.081Z,933.70
2018-04-28T06:31:20.097Z,933.68
2018-04-28T06:32:20.112Z,933.68
2018-04-28T06:33:20.013Z,933.70
2018-04-28T06:34:20.243Z,933.68
2018-04-28T06:35:20.029Z,933.64
2018-04-28T06:36:20.050Z,933.65
2018-04-28T06:37:20.071Z,933.65
2018-04-28T06:38:20.276Z,933.60
2018-04-28T06:39:20.316Z,933.64
2018-04-28T06:40:20.231Z,933.63
2018-04-28T06:41:20.248Z,933.65
2018-04-28T06:42:20.145Z,933.66
2018-04-28T06:43:20.276Z,933.63
2018-04-28T06:44:20.266Z,933.62
2018-04-28T06:45:20.191Z,933.67
2018-04-28T06:46:20.321Z,933.63
2018-04-28T06:47:20.207Z,933.60
2018-04-28T06:48:20.233Z,933.62
2018-04-28T06:49:20.465Z,933.61
2018-04-28T06:50:20.379Z,933.63
2018-04-28T06:51:20.279Z,933.64
2018-04-28T06:52:20.283Z,933.61
2018-04-28T06:53:20.307Z,933.63
2018-04-28T06:54:20.478Z,933.60
2018-04-28T06:55:20.338Z,933.61
2018-04-28T06:56:20.473Z,933.63
2018-04-28T06:57:20.363Z,933.62
2018-04-28T06:58:20.373Z,933.59
2018-04-28T06:59:20.489Z,933.57
2018-04-28T07:00:20.417Z,933.56
2018-04-28T07:01:20.418Z,933.55
2018-04-28T07:02:20.435Z,933.53
2018-04-28T07:03:20.583Z,933.53
2018-04-28T07:04:20.565Z,933.52
2018-04-28T07:05:20.607Z,933.51
2018-04-28T07:06:20.502Z,933.51
2018-04-28T07:07:20.518Z,933.49
2018-04-28T07:08:20.533Z,933.54
2018-04-28T07:09:20.643Z,933.53
2018-04-28T07:10:20.562Z,933.50
2018-04-28T07:11:20.698Z,933.52
2018-04-28T07:12:20.591Z,933.53
2018-04-28T07:13:20.610Z,933.53
2018-04-28T07:14:20.744Z,933.47
2018-04-28T07:15:20.741Z,933.52
2018-04-28T07:16:20.650Z,933.53
2018-04-28T07:17:20.670Z,933.48
2018-04-28T07:18:20.678Z,933.46
2018-04-28T07:19:20.822Z,933.49
2018-04-28T07:20:20.818Z,933.49
2018-04-28T07:21:20.856Z,933.46
2018-04-28T07:22:20.870Z,933.51
2018-04-28T07:23:20.756Z,933.51
2018-04-28T07:24:20.780Z,933.52
2018-04-28T07:25:20.901Z,933.52
2018-04-28T07:26:20.805Z,933.55
2018-04-28T07:27:20.820Z,933.50
2018-04-28T07:28:20.840Z,933.51
2018-04-28T07:29:21.020Z,933.49
2018-04-28T07:30:21.092Z,933.47
2018-04-28T07:31:20.880Z,933.51
2018-04-28T07:32:20.903Z,933.50
2018-04-28T07:33:20.908Z,933.50
2018-04-28T07:34:20.941Z,933.51
2018-04-28T07:35:21.068Z,933.53
2018-04-28T07:36:20.965Z,933.53
2018-04-28T07:37:20.984Z,933.54
2018-04-28T07:38:21.116Z,933.51
2018-04-28T07:39:21.132Z,933.51
2018-04-28T07:40:21.245Z,933.53
2018-04-28T07:41:21.161Z,933.58
2018-04-28T07:42:21.058Z,933.59
2018-04-28T07:43:21.192Z,933.56
2018-04-28T07:44:21.080Z,933.59
2018-04-28T07:45:21.205Z,933.56
2018-04-28T07:46:21.123Z,933.56
2018-04-28T07:47:21.144Z,933.55
2018-04-28T07:48:21.180Z,933.53
2018-04-28T07:49:21.158Z,933.52
2018-04-28T07:50:21.273Z,933.55
2018-04-28T07:51:21.316Z,933.57
2018-04-28T07:52:21.204Z,933.54
2018-04-28T07:53:21.347Z,933.52
2018-04-28T07:54:21.364Z,933.55
2018-04-28T07:55:21.376Z,933.58
2018-04-28T07:56:21.275Z,933.60
2018-04-28T07:57:21.284Z,933.58
2018-04-28T07:58:21.307Z,933.60
2018-04-28T07:59:21.328Z,933.60
2018-04-28T08:00:21.647Z,933.59
2018-04-28T08:01:21.368Z,933.62
2018-04-28T08:02:21.365Z,933.59
2018-04-28T08:03:21.501Z,933.60
2018-04-28T08:04:21.519Z,933.56
2018-04-28T08:05:21.533Z,933.59
2018-04-28T08:06:21.529Z,933.59
2018-04-28T08:07:21.565Z,933.55
2018-04-28T08:08:21.580Z,933.57
2018-04-28T08:09:21.470Z,933.58
2018-04-28T08:10:21.486Z,933.58
2018-04-28T08:11:21.726Z,933.56
2018-04-28T08:12:21.517Z,933.56
2018-04-28T08:13:21.537Z,933.55
2018-04-28T08:14:21.560Z,933.55
2018-04-28T08:15:21.581Z,933.56
2018-04-28T08:16:21.691Z,933.55
2018-04-28T08:17:21.596Z,933.53
2018-04-28T08:18:21.601Z,933.55
2018-04-28T08:19:21.751Z,933.61
2018-04-28T08:20:21.647Z,933.60
2018-04-28T08:21:21.768Z,933.60
2018-04-28T08:22:21.794Z,933.62
2018-04-28T08:23:21.688Z,933.59
2018-04-28T08:24:21.708Z,933.61
2018-04-28T08:25:21.716Z,933.58
2018-04-28T08:26:21.835Z,933.60
2018-04-28T08:27:21.753Z,933.58
2018-04-28T08:28:21.760Z,933.54
2018-04-28T08:29:21.904Z,933.57
2018-04-28T08:30:21.805Z,933.57
2018-04-28T08:31:21.911Z,933.61
2018-04-28T08:32:21.949Z,933.61
2018-04-28T08:33:21.846Z,933.59
2018-04-28T08:34:21.866Z,933.65
2018-04-28T08:35:21.997Z,933.62
2018-04-28T08:36:22.010Z,933.62
2018-04-28T08:37:22.243Z,933.68
2018-04-28T08:38:22.042Z,933.70
2018-04-28T08:39:22.058Z,933.67
2018-04-28T08:40:21.945Z,933.69
2018-04-28T08:41:22.089Z,933.67
2018-04-28T08:42:22.090Z,933.70
2018-04-28T08:43:22.124Z,933.68
2018-04-28T08:44:22.035Z,933.69
2018-04-28T08:45:22.022Z,933.73
2018-04-28T08:46:22.043Z,933.73
2018-04-28T08:47:22.152Z,933.73
2018-04-28T08:48:22.076Z,933.76
2018-04-28T08:49:22.101Z,933.75
2018-04-28T08:50:22.228Z,933.75
2018-04-28T08:51:22.243Z,933.75
2018-04-28T08:52:22.325Z,933.75
2018-04-28T08:53:22.149Z,933.75
2018-04-28T08:54:22.164Z,933.78
2018-04-28T08:55:22.304Z,933.76
2018-04-28T08:56:22.198Z,933.74
2018-04-28T08:57:22.308Z,933.76
2018-04-28T08:58:22.238Z,933.84
2018-04-28T08:59:22.447Z,933.86
2018-04-28T09:00:22.254Z,933.87
2018-04-28T09:01:22.400Z,933.85
2018-04-28T09:02:22.389Z,933.84
2018-04-28T09:03:22.310Z,933.84
2018-04-28T09:04:22.317Z,933.86
2018-04-28T09:05:22.335Z,933.86
2018-04-28T09:06:22.476Z,933.86
2018-04-28T09:07:22.474Z,933.91
2018-04-28T09:08:22.384Z,933.91
2018-04-28T09:09:22.527Z,933.90
2018-04-28T09:10:22.537Z,933.90
2018-04-28T09:11:22.425Z,933.92
2018-04-28T09:12:22.554Z,933.93
2018-04-28T09:13:22.583Z,933.93
2018-04-28T09:14:22.482Z,933.98
2018-04-28T09:15:22.501Z,933.97
2018-04-28T09:16:22.512Z,934.00
2018-04-28T09:17:22.648Z,934.02
2018-04-28T09:18:22.636Z,934.01
2018-04-28T09:19:22.548Z,934.04
2018-04-28T09:20:22.697Z,934.03
2018-04-28T09:21:22.707Z,934.02
2018-04-28T09:22:22.609Z,934.00
2018-04-28T09:23:22.842Z,934.05
2018-04-28T09:24:22.625Z,934.04
2018-04-28T09:25:22.656Z,934.06
2018-04-28T09:26:22.950Z,934.09
2018-04-28T09:27:22.681Z,934.06
2018-04-28T09:28:22.914Z,934.12
2018-04-28T09:29:22.711Z,934.13
2018-04-28T09:30:22.728Z,934.15
2018-04-28T09:31:22.735Z,934.15
2018-04-28T09:32:22.751Z,934.21
2018-04-28T09:33:22.891Z,934.23
2018-04-28T09:34:22.881Z,934.22
2018-04-28T09:35:22.806Z,934.27
2018-04-28T09:36:22.815Z,934.26
2018-04-28T09:37:22.842Z,934.27
2018-04-28T09:38:22.970Z,934.30
2018-04-28T09:39:22.974Z,934.31
2018-04-28T09:40:23.003Z,934.29
2018-04-28T09:41:22.905Z,934.32
2018-04-28T09:42:22.914Z,934.38
2018-04-28T09:43:22.924Z,934.38
2018-04-28T09:44:23.162Z,934.42
2018-04-28T09:45:23.081Z,934.41
2018-04-28T09:46:23.101Z,934.42
2018-04-28T09:47:22.993Z,934.45
2018-04-28T09:48:23.126Z,934.45
2018-04-28T09:49:23.241Z,934.47
2018-04-28T09:50:23.156Z,934.50
2018-04-28T09:51:23.172Z,934.50
2018-04-28T09:52:23.075Z,934.51
2018-04-28T09:53:23.205Z,934.56
2018-04-28T09:54:23.244Z,934.55
2018-04-28T09:55:23.236Z,934.55
2018-04-28T09:56:23.253Z,934.57
2018-04-28T09:57:23.147Z,934.56
2018-04-28T09:58:23.281Z,934.58
2018-04-28T09:59:23.331Z,934.61
2018-04-28T10:00:23.200Z,934.61
2018-04-28T10:01:23.205Z,934.58
2018-04-28T10:02:23.228Z,934.63
2018-04-28T10:03:23.246Z,934.65
2018-04-28T10:04:23.477Z,934.63
2018-04-28T10:05:23.279Z,934.61
2018-04-28T10:06:23.289Z,934.68
2018-04-28T10:07:23.300Z,934.67
2018-04-28T10:08:23.439Z,934.65
2018-04-28T10:09:23.478Z,934.71
2018-04-28T10:10:23.473Z,934.71
2018-04-28T10:11:23.490Z,934.68
2018-04-28T10:12:23.384Z,934.71
2018-04-28T10:13:23.522Z,934.70
2018-04-28T10:14:23.416Z,934.71
2018-04-28T10:15:23.534Z,934.70
2018-04-28T10:16:23.439Z,934.69
2018-04-28T10:17:23.585Z,934.72
2018-04-28T10:18:23.486Z,934.75
2018-04-28T10:19:23.502Z,934.76
2018-04-28T10:20:23.735Z,934.79
2018-04-28T10:21:23.535Z,934.80
2018-04-28T10:22:23.539Z,934.82
2018-04-28T10:23:23.562Z,934.80
2018-04-28T10:24:23.571Z,934.85
2018-04-28T10:25:23.694Z,934.81
2018-04-28T10:26:23.613Z,934.83
2018-04-28T10:27:23.748Z,934.80
2018-04-28T10:28:23.642Z,934.84
2018-04-28T10:29:23.650Z,934.80
2018-04-28T10:30:23.659Z,934.84
2018-04-28T10:31:23.798Z,934.89
2018-04-28T10:32:23.829Z,934.85
2018-04-28T10:33:23.731Z,934.87
2018-04-28T10:34:23.748Z,934.87
2018-04-28T10:35:23.757Z,934.87
2018-04-28T10:36:23.896Z,934.85
2018-04-28T10:37:24.014Z,934.84
2018-04-28T10:38:23.929Z,934.91
2018-04-28T10:39:23.836Z,934.89
2018-04-28T10:40:23.835Z,934.91
2018-04-28T10:41:23.980Z,934.91
2018-04-28T10:42:24.095Z,934.96
2018-04-28T10:43:23.903Z,934.94
2018-04-28T10:44:23.917Z,934.96
2018-04-28T10:45:23.931Z,934.96
2018-04-28T10:46:23.951Z,934.96
2018-04-28T10:47:24.116Z,934.91
2018-04-28T10:48:23.988Z,934.96
2018-04-28T10:49:24.118Z,934.96
2018-04-28T10:50:24.009Z,934.99
2018-04-28T10:51:24.153Z,934.96
2018-04-28T10:52:24.274Z,934.95
2018-04-28T10:53:24.191Z,934.99
2018-04-28T10:54:24.089Z,935.02
2018-04-28T10:55:24.093Z,935.00
2018-04-28T10:56:24.126Z,935.04
2018-04-28T10:57:24.415Z,935.02
2018-04-28T10:58:24.281Z,935.06
2018-04-28T10:59:24.298Z,935.05
2018-04-28T11:00:24.202Z,935.03
2018-04-28T11:01:24.209Z,935.04
2018-04-28T11:02:24.505Z,935.02
2018-04-28T11:03:24.374Z,935.06
2018-04-28T11:04:24.393Z,935.08
2018-04-28T11:05:24.287Z,935.02
2018-04-28T11:06:24.433Z,935.08
2018-04-28T11:07:24.331Z,935.11
2018-04-28T11:08:24.494Z,935.13
2018-04-28T11:09:24.487Z,935.13
2018-04-28T11:10:24.392Z,935.18
2018-04-28T11:11:24.528Z,935.20
2018-04-28T11:12:24.544Z,935.23
2018-04-28T11:13:24.749Z,935.19
2018-04-28T11:14:24.470Z,935.26
2018-04-28T11:15:24.601Z,935.28
2018-04-28T11:16:24.508Z,935.29
2018-04-28T11:17:24.528Z,935.28
2018-04-28T11:18:24.536Z,935.27
2018-04-28T11:19:24.661Z,935.24
2018-04-28T11:20:24.700Z,935.31
2018-04-28T11:21:24.722Z,935.31
2018-04-28T11:22:24.620Z,935.30
2018-04-28T11:23:24.763Z,935.30
2018-04-28T11:24:24.812Z,935.36
2018-04-28T11:25:24.741Z,935.35
2018-04-28T11:26:24.707Z,935.38
2018-04-28T11:27:24.728Z,935.38
2018-04-28T11:28:24.733Z,935.41
2018-04-28T11:29:24.869Z,935.43
2018-04-28T11:30:24.789Z,935.42
2018-04-28T11:31:24.793Z,935.44
2018-04-28T11:32:24.827Z,935.40
2018-04-28T11:33:24.971Z,935.47
2018-04-28T11:34:25.085Z,935.48
2018-04-28T11:35:25.007Z,935.49
2018-04-28T11:36:24.906Z,935.46
2018-04-28T11:37:25.048Z,935.47
2018-04-28T11:38:24.948Z,935.50
2018-04-28T11:39:25.235Z,935.49
2018-04-28T11:40:24.981Z,935.54
2018-04-28T11:41:25.007Z,935.57
2018-04-28T11:42:25.035Z,935.54
2018-04-28T11:43:25.054Z,935.55
2018-04-28T11:44:25.289Z,935.51
2018-04-28T11:45:25.094Z,935.59
2018-04-28T11:46:25.101Z,935.62
2018-04-28T11:47:25.250Z,935.63
2018-04-28T11:48:25.270Z,935.66
2018-04-28T11:49:25.276Z,935.67
2018-04-28T11:50:25.177Z,935.68
2018-04-28T11:51:25.330Z,935.67
2018-04-28T11:52:25.225Z,935.70
2018-04-28T11:53:25.249Z,935.73
2018-04-28T11:54:25.494Z,935.73
2018-04-28T11:55:25.415Z,935.74
2018-04-28T11:56:25.304Z,935.73
2018-04-28T11:57:25.456Z,935.66
2018-04-28T11:58:25.347Z,935.68
2018-04-28T11:59:25.476Z,935.66
2018-04-28T12:00:25.389Z,935.69
2018-04-28T12:01:25.536Z,935.69
2018-04-28T12:02:25.442Z,935.71
2018-04-28T12:03:25.452Z,935.72
2018-04-28T12:04:25.484Z,935.68
2018-04-28T12:05:25.648Z,935.73
2018-04-28T12:06:25.514Z,935.72
2018-04-28T12:07:25.542Z,935.79
2018-04-28T12:08:25.556Z,935.73
2018-04-28T12:09:25.700Z,935.77
2018-04-28T12:10:25.723Z,935.77
2018-04-28T12:11:25.895Z,935.76
2018-04-28T12:12:25.764Z,935.76
2018-04-28T12:13:25.657Z,935.75
2018-04-28T12:14:25.685Z,935.78
2018-04-28T12:15:25.710Z,935.78
2018-04-28T12:16:25.945Z,935.76
2018-04-28T12:17:25.738Z,935.72
2018-04-28T12:18:25.764Z,935.76
2018-04-28T12:19:25.778Z,935.73
2018-04-28T12:20:25.927Z,935.75
2018-04-28T12:21:26.048Z,935.75
2018-04-28T12:22:25.846Z,935.74
2018-04-28T12:23:25.987Z,935.79
2018-04-28T12:24:26.005Z,935.79
2018-04-28T12:25:25.898Z,935.80
2018-04-28T12:26:26.145Z,935.79
2018-04-28T12:27:25.947Z,935.79
2018-04-28T12:28:25.960Z,935.79
2018-04-28T12:29:25.989Z,935.82